Time;durP1;ratioP1;P1;durP2;ratioP2;P2;SDS_P1;SDS_P2;PMS_P1;PMS_P2;Temp;Humidity;BMP_temperature;BMP_pressure;BME280_temperature;BME280_humidity;BME280_pressure;Samples;Min_cycle;Max_cycle;Signal;HPM_P1;HPM_P2
2022/01/17 00:00:57;;;;;;;2.50;2.00;;;3.90;1.00;;;;;;5058740;28;20548;-75
2022/01/17 00:03:26;;;;;;;0.87;0.63;;;3.90;1.00;;;;;;5068885;28;20500;-76
2022/01/17 00:05:54;;;;;;;2.80;2.33;;;3.90;1.00;;;;;;5073847;28;20483;-76
2022/01/17 00:08:22;;;;;;;1.63;1.53;;;4.00;1.00;;;;;;5060660;28;20447;-75
2022/01/17 00:10:50;;;;;;;6.57;1.83;;;4.00;1.00;;;;;;5055569;28;20822;-76
2022/01/17 00:13:25;;;;;;;2.43;1.97;;;4.00;1.00;;;;;;5054900;28;20459;-76
2022/01/17 00:15:57;;;;;;;1.97;1.87;;;4.00;1.00;;;;;;5054150;28;20506;-76
2022/01/17 00:18:52;;;;;;;11.67;11.17;;;4.10;1.00;;;;;;5071148;28;20472;-75
2022/01/17 00:21:19;;;;;;;6.00;4.13;;;4.10;1.00;;;;;;5074821;28;20495;-77
2022/01/17 00:23:49;;;;;;;5.83;3.17;;;4.10;1.00;;;;;;5075978;28;20541;-75
2022/01/17 00:26:17;;;;;;;5.30;2.57;;;4.00;1.00;;;;;;5063411;28;20447;-76
2022/01/17 00:28:46;;;;;;;7.10;4.53;;;4.00;1.00;;;;;;5066508;28;20475;-75
2022/01/17 00:31:14;;;;;;;2.63;2.43;;;4.00;1.00;;;;;;5054412;28;20456;-76
2022/01/17 00:33:42;;;;;;;5.30;2.60;;;4.00;1.00;;;;;;5054265;28;20862;-76
2022/01/17 00:36:10;;;;;;;6.70;3.73;;;4.00;1.00;;;;;;5076036;28;20472;-77
2022/01/17 00:38:38;;;;;;;3.47;2.93;;;4.00;1.00;;;;;;5085102;28;20536;-76
2022/01/17 00:41:06;;;;;;;2.63;1.70;;;4.00;1.00;;;;;;5068303;28;20498;-76
2022/01/17 00:43:35;;;;;;;2.00;1.80;;;4.00;1.00;;;;;;5060335;28;20488;-76
2022/01/17 00:46:04;;;;;;;1.27;0.53;;;4.00;1.00;;;;;;5053308;28;20474;-76
2022/01/17 00:48:32;;;;;;;6.03;2.13;;;4.10;1.00;;;;;;5057546;28;20473;-76
2022/01/17 00:51:00;;;;;;;9.00;3.63;;;4.10;1.00;;;;;;5074277;28;20453;-76
2022/01/17 00:53:29;;;;;;;4.63;4.13;;;4.10;1.00;;;;;;5071378;28;20494;-76
2022/01/17 00:55:56;;;;;;;1.37;0.77;;;4.10;1.00;;;;;;5055979;28;20488;-75
2022/01/17 00:58:24;;;;;;;2.00;1.37;;;4.10;1.00;;;;;;5054359;28;20939;-76
2022/01/17 01:00:52;;;;;;;1.00;0.50;;;4.10;1.00;;;;;;5054672;28;20548;-76
2022/01/17 01:03:22;;;;;;;2.10;1.87;;;4.10;1.00;;;;;;5060204;28;20547;-77
2022/01/17 01:05:50;;;;;;;5.20;2.53;;;4.10;1.00;;;;;;5072648;28;20450;-76
2022/01/17 01:08:18;;;;;;;1.20;0.97;;;4.10;1.00;;;;;;5077404;28;20452;-76
2022/01/17 01:10:46;;;;;;;2.80;1.13;;;4.10;1.00;;;;;;5056423;28;20555;-76
2022/01/17 01:13:16;;;;;;;4.00;3.17;;;4.10;1.00;;;;;;5054407;28;20489;-77
2022/01/17 01:16:08;;;;;;;7.27;3.17;;;4.10;1.00;;;;;;5050240;28;20479;-77
2022/01/17 01:19:05;;;;;;;0.60;0.53;;;4.10;1.00;;;;;;5036100;28;20468;-77
2022/01/17 01:29:58;;;;;;;2.20;2.00;;;3.90;1.00;;;;;;5004298;28;20993;-76
2022/01/17 01:32:33;;;;;;;1.93;1.37;;;3.90;1.00;;;;;;5048058;28;20645;-74
2022/01/17 01:35:08;;;;;;;3.50;2.50;;;3.90;1.00;;;;;;5073089;28;20456;-75
2022/01/17 01:37:37;;;;;;;3.43;2.33;;;4.00;1.00;;;;;;5073765;28;20553;-76
2022/01/17 01:40:06;;;;;;;3.33;1.33;;;4.00;1.00;;;;;;5066049;28;20840;-77
2022/01/17 01:42:34;;;;;;;2.30;2.10;;;4.00;1.00;;;;;;5073204;28;20446;-77
2022/01/17 01:45:05;;;;;;;3.43;2.43;;;4.00;1.00;;;;;;5066578;28;20464;-77
2022/01/17 01:47:33;;;;;;;3.40;2.77;;;4.00;1.00;;;;;;5053581;28;20543;-76
2022/01/17 01:50:01;;;;;;;2.00;1.90;;;;;;;;;;5066564;28;20482;-75
2022/01/17 01:52:31;;;;;;;2.23;2.00;;;4.10;1.00;;;;;;5073311;28;20450;-77
2022/01/17 01:54:59;;;;;;;4.67;4.10;;;4.10;1.00;;;;;;5072501;28;20446;-75
2022/01/17 01:57:27;;;;;;;2.80;2.60;;;4.10;1.00;;;;;;5073785;28;21176;-77
2022/01/17 01:59:56;;;;;;;6.63;2.83;;;4.00;1.00;;;;;;5071381;28;21218;-76
2022/01/17 02:02:24;;;;;;;0.50;0.10;;;4.10;1.00;;;;;;5072902;28;20466;-76
2022/01/17 02:04:53;;;;;;;7.80;4.80;;;4.00;1.00;;;;;;5072731;28;20495;-76
2022/01/17 02:07:22;;;;;;;3.40;1.90;;;4.00;1.00;;;;;;5072692;28;20786;-76
2022/01/17 02:09:51;;;;;;;0.50;0.10;;;4.00;1.00;;;;;;5066245;28;20461;-75
2022/01/17 02:12:21;;;;;;;2.17;2.00;;;4.00;1.00;;;;;;5073500;28;20447;-76
2022/01/17 02:14:52;;;;;;;2.90;1.90;;;4.10;1.00;;;;;;5066771;28;20951;-77
2022/01/17 02:17:21;;;;;;;0.60;0.50;;;4.10;1.00;;;;;;5053973;28;20480;-76
2022/01/17 02:19:53;;;;;;;1.80;1.27;;;4.10;1.00;;;;;;5060484;28;20981;-77
2022/01/17 02:22:21;;;;;;;1.77;0.90;;;4.10;1.00;;;;;;5075604;28;20453;-75
2022/01/17 02:24:49;;;;;;;1.37;0.43;;;4.10;1.00;;;;;;5075938;28;20451;-75
2022/01/17 02:27:17;;;;;;;0.50;0.10;;;4.10;1.00;;;;;;5076339;28;20457;-74
2022/01/17 02:29:45;;;;;;;0.50;0.10;;;4.10;1.00;;;;;;5073300;28;20481;-77
2022/01/17 02:32:13;;;;;;;1.70;1.43;;;4.20;1.00;;;;;;5076030;28;20821;-77
2022/01/17 02:34:42;;;;;;;2.00;1.23;;;4.20;1.00;;;;;;5070967;28;20486;-77
2022/01/17 02:37:12;;;;;;;0.50;0.20;;;4.20;1.00;;;;;;5055479;28;20531;-77
2022/01/17 02:39:40;;;;;;;6.70;5.93;;;4.20;1.00;;;;;;5060424;28;20868;-76
2022/01/17 02:42:08;;;;;;;1.77;1.17;;;4.20;1.00;;;;;;5048661;28;20540;-76
2022/01/17 02:44:44;;;;;;;0.70;0.53;;;4.20;1.00;;;;;;5053156;28;20464;-76
2022/01/17 02:47:12;;;;;;;1.53;1.43;;;4.20;1.00;;;;;;5061702;28;20450;-76
2022/01/17 02:49:40;;;;;;;0.50;0.20;;;4.20;1.00;;;;;;5073275;28;20472;-76
2022/01/17 02:52:08;;;;;;;5.73;2.77;;;4.20;1.00;;;;;;5057600;28;20450;-76
2022/01/17 02:54:38;;;;;;;1.30;0.93;;;4.20;1.00;;;;;;5062465;28;20451;-76
2022/01/17 02:57:07;;;;;;;1.10;0.40;;;4.10;1.00;;;;;;5077190;28;20482;-75
2022/01/17 02:59:35;;;;;;;1.43;0.20;;;4.10;1.00;;;;;;5076282;28;20936;-77
2022/01/17 03:02:04;;;;;;;1.33;1.27;;;4.20;1.00;;;;;;5067373;28;20559;-77
2022/01/17 03:04:33;;;;;;;0.50;0.10;;;4.20;1.00;;;;;;5065058;28;20489;-77
2022/01/17 03:07:01;;;;;;;1.53;1.43;;;4.20;1.00;;;;;;5080362;28;20447;-77
2022/01/17 03:09:36;;;;;;;1.10;0.77;;;4.30;1.00;;;;;;5075680;28;20524;-77
2022/01/17 03:12:06;;;;;;;0.60;0.30;;;4.20;1.00;;;;;;5058045;28;20454;-77
2022/01/17 03:14:34;;;;;;;0.50;0.30;;;4.20;1.00;;;;;;5061776;28;20443;-76
2022/01/17 03:17:02;;;;;;;0.80;0.47;;;4.30;1.00;;;;;;5067681;28;20485;-77
2022/01/17 03:19:30;;;;;;;0.50;0.17;;;4.30;1.00;;;;;;5058257;28;20986;-77
2022/01/17 03:22:00;;;;;;;2.60;1.03;;;4.20;1.00;;;;;;5058378;28;20536;-77
2022/01/17 03:24:28;;;;;;;1.20;0.63;;;4.30;1.00;;;;;;5056631;28;20924;-76
2022/01/17 03:26:56;;;;;;;5.40;5.00;;;4.30;1.00;;;;;;5058020;28;21006;-75
2022/01/17 03:29:26;;;;;;;3.30;1.23;;;4.30;1.00;;;;;;5058222;28;20473;-77
2022/01/17 03:31:53;;;;;;;2.23;1.40;;;4.20;1.00;;;;;;5057930;28;20462;-76
2022/01/17 03:34:21;;;;;;;1.27;0.67;;;4.30;1.00;;;;;;5056722;28;20897;-77
2022/01/17 03:36:49;;;;;;;2.20;2.00;;;4.20;1.00;;;;;;5056814;28;20481;-77
2022/01/17 03:39:17;;;;;;;8.50;3.63;;;4.10;1.00;;;;;;5056409;28;20570;-75
2022/01/17 03:41:45;;;;;;;7.30;6.60;;;4.10;1.00;;;;;;5076710;28;20561;-75
2022/01/17 03:44:13;;;;;;;0.93;0.60;;;4.00;1.00;;;;;;5076321;28;20457;-77
2022/01/17 03:46:43;;;;;;;0.50;0.20;;;4.10;1.00;;;;;;5057242;28;20451;-77
2022/01/17 03:49:11;;;;;;;0.50;0.10;;;4.10;1.00;;;;;;5076210;28;20465;-77
2022/01/17 03:51:39;;;;;;;3.97;0.93;;;;;;;;;;5075730;28;20445;-76
2022/01/17 03:54:07;;;;;;;5.17;3.20;;;4.20;1.00;;;;;;5076184;28;20538;-77
2022/01/17 03:56:35;;;;;;;1.33;1.00;;;4.20;1.00;;;;;;5075171;28;20813;-77
2022/01/17 03:59:03;;;;;;;0.70;0.50;;;4.10;1.00;;;;;;5059735;28;20852;-76
2022/01/17 04:01:31;;;;;;;0.53;0.20;;;4.10;1.00;;;;;;5060031;28;20447;-77
2022/01/17 04:04:01;;;;;;;0.70;0.50;;;4.20;1.00;;;;;;5075019;28;20549;-77
2022/01/17 04:06:28;;;;;;;0.90;0.90;;;4.20;1.00;;;;;;5078099;28;20447;-76
2022/01/17 04:08:56;;;;;;;0.60;0.30;;;4.20;1.00;;;;;;5058217;28;20977;-77
2022/01/17 04:11:24;;;;;;;0.50;0.20;;;4.30;1.00;;;;;;5055432;28;20462;-77
2022/01/17 04:13:52;;;;;;;0.50;0.10;;;4.30;1.00;;;;;;5055942;28;20445;-77
2022/01/17 04:16:20;;;;;;;0.80;0.60;;;4.50;1.00;;;;;;5051806;28;20930;-77
2022/01/17 04:18:48;;;;;;;1.37;1.27;;;4.40;1.00;;;;;;5071961;28;20479;-77
2022/01/17 04:21:17;;;;;;;0.60;0.30;;;4.40;1.00;;;;;;5075973;28;20475;-77
2022/01/17 04:23:45;;;;;;;0.97;0.87;;;4.40;1.00;;;;;;5074900;28;20461;-77
2022/01/17 04:26:14;;;;;;;0.50;0.10;;;4.30;1.00;;;;;;5074947;28;20451;-76
2022/01/17 04:28:42;;;;;;;0.50;0.10;;;4.30;1.00;;;;;;5057163;28;20469;-77
2022/01/17 04:31:10;;;;;;;0.50;0.30;;;4.30;1.00;;;;;;5039882;28;20456;-77
2022/01/17 04:33:38;;;;;;;0.50;0.10;;;4.40;1.00;;;;;;5036693;28;20536;-75
2022/01/17 04:36:07;;;;;;;0.50;0.10;;;4.40;1.00;;;;;;5071105;28;20493;-76
2022/01/17 04:38:37;;;;;;;0.50;0.10;;;4.50;1.00;;;;;;5066548;28;20982;-76
2022/01/17 04:41:13;;;;;;;0.60;0.43;;;4.40;1.00;;;;;;5065458;28;20961;-76
2022/01/17 04:43:56;;;;;;;2.83;2.60;;;4.50;1.00;;;;;;5058900;28;20455;-76
2022/01/17 04:46:25;;;;;;;0.70;0.40;;;4.50;1.00;;;;;;5075738;28;20452;-77
2022/01/17 04:48:53;;;;;;;0.50;0.10;;;4.50;1.00;;;;;;5061585;28;20564;-76
2022/01/17 04:51:21;;;;;;;0.50;0.10;;;4.50;1.00;;;;;;5062293;28;20489;-76
2022/01/17 04:54:11;;;;;;;1.00;0.70;;;4.50;1.00;;;;;;5078016;28;20453;-77
2022/01/17 04:56:39;;;;;;;0.50;0.10;;;4.50;1.00;;;;;;5060452;28;20503;-76
2022/01/17 04:59:07;;;;;;;1.53;0.50;;;4.50;1.00;;;;;;5084462;22;20885;-76
2022/01/17 05:01:35;;;;;;;0.50;0.10;;;4.50;1.00;;;;;;5051475;28;20449;-75
2022/01/17 05:04:03;;;;;;;0.50;0.10;;;4.60;1.00;;;;;;5046880;28;20551;-75
2022/01/17 05:06:31;;;;;;;0.50;0.10;;;4.60;1.00;;;;;;5041257;28;20448;-75
2022/01/17 05:09:02;;;;;;;0.50;0.10;;;4.60;1.00;;;;;;5056077;28;20465;-75
2022/01/17 05:11:31;;;;;;;1.03;0.53;;;4.50;1.00;;;;;;5043005;28;20452;-76
2022/01/17 05:13:59;;;;;;;1.47;0.90;;;4.50;1.00;;;;;;5035084;28;20436;-75
2022/01/17 05:16:33;;;;;;;1.93;1.57;;;4.50;1.00;;;;;;5033617;28;20443;-77
2022/01/17 05:21:47;;;;;;;2.93;2.63;;;4.50;1.00;;;;;;5014672;28;20450;-75
2022/01/17 05:24:16;;;;;;;0.50;0.20;;;4.50;1.00;;;;;;5013414;28;20996;-77
2022/01/17 05:26:44;;;;;;;1.13;0.90;;;4.40;1.00;;;;;;5013512;28;20459;-76
2022/01/17 05:29:11;;;;;;;1.50;1.40;;;4.40;1.00;;;;;;5012484;28;20499;-76
2022/01/17 05:31:39;;;;;;;0.50;0.20;;;4.50;1.00;;;;;;5010687;28;20469;-74
2022/01/17 05:34:07;;;;;;;0.70;0.70;;;4.50;1.00;;;;;;5013371;28;20474;-76
2022/01/17 05:36:35;;;;;;;1.27;0.70;;;4.60;1.00;;;;;;5013294;28;20544;-76
2022/01/17 05:39:03;;;;;;;0.60;0.30;;;4.60;1.00;;;;;;5013643;28;21007;-75
2022/01/17 05:41:33;;;;;;;1.73;1.20;;;4.60;1.00;;;;;;5013868;28;20456;-77
2022/01/17 05:44:00;;;;;;;1.70;1.13;;;4.60;1.00;;;;;;5014150;28;20543;-77
2022/01/17 05:46:28;;;;;;;0.57;0.40;;;4.60;1.00;;;;;;5032137;28;20487;-76
2022/01/17 05:48:56;;;;;;;1.73;1.20;;;4.60;1.00;;;;;;5017317;28;20469;-77
2022/01/17 05:51:24;;;;;;;0.80;0.20;;;4.60;1.00;;;;;;5020205;28;20448;-76
2022/01/17 05:53:52;;;;;;;0.97;0.77;;;4.60;1.00;;;;;;5023248;28;20477;-74
2022/01/17 05:56:20;;;;;;;0.50;0.10;;;4.50;1.00;;;;;;5038131;28;20441;-76
2022/01/17 05:58:49;;;;;;;0.90;0.40;;;4.60;1.00;;;;;;5022860;28;21016;-77
2022/01/17 06:01:17;;;;;;;1.07;0.50;;;4.50;1.00;;;;;;5017727;28;20458;-76
2022/01/17 06:03:45;;;;;;;3.77;1.30;;;4.60;1.00;;;;;;5017418;28;20801;-77
2022/01/17 06:06:13;;;;;;;1.23;1.13;;;4.60;1.00;;;;;;5017032;28;20476;-76
2022/01/17 06:08:42;;;;;;;0.60;0.47;;;4.60;1.00;;;;;;5025597;28;20445;-76
2022/01/17 06:11:10;;;;;;;0.50;0.10;;;4.60;1.00;;;;;;5021211;28;20444;-76
2022/01/17 06:13:38;;;;;;;1.47;0.37;;;4.70;1.00;;;;;;5017201;28;20445;-74
2022/01/17 06:16:07;;;;;;;0.60;0.30;;;4.80;1.00;;;;;;5017162;28;20968;-77
2022/01/17 06:18:35;;;;;;;0.50;0.20;;;4.80;1.00;;;;;;5030699;28;20510;-76
2022/01/17 06:21:03;;;;;;;0.67;0.40;;;4.80;1.00;;;;;;5039024;28;20462;-75
2022/01/17 06:23:31;;;;;;;0.67;0.20;;;4.80;1.00;;;;;;5037771;28;20450;-75
2022/01/17 06:25:59;;;;;;;1.53;1.17;;;4.80;1.00;;;;;;5036458;28;20448;-77
2022/01/17 06:28:27;;;;;;;0.77;0.40;;;4.80;1.00;;;;;;5027201;28;20469;-75
2022/01/17 06:30:55;;;;;;;6.67;6.07;;;4.80;1.00;;;;;;5013061;28;20496;-75
2022/01/17 06:33:24;;;;;;;2.17;1.40;;;4.90;1.00;;;;;;5013447;28;20492;-74
2022/01/17 06:35:52;;;;;;;1.27;0.83;;;4.80;1.00;;;;;;5027953;28;20506;-77
2022/01/17 06:38:20;;;;;;;0.70;0.60;;;4.80;1.00;;;;;;5018690;28;20496;-77
2022/01/17 06:40:47;;;;;;;1.33;0.80;;;4.80;1.00;;;;;;5021638;28;20480;-76
2022/01/17 06:43:15;;;;;;;0.60;0.40;;;4.70;1.00;;;;;;5017930;28;20894;-76
2022/01/17 06:45:45;;;;;;;0.80;0.60;;;4.80;1.00;;;;;;5029299;28;20471;-76
2022/01/17 06:48:13;;;;;;;1.23;1.13;;;4.70;1.00;;;;;;5033727;28;20467;-75
2022/01/17 06:50:42;;;;;;;3.07;1.50;;;4.70;1.00;;;;;;5013536;28;20564;-76
2022/01/17 06:53:10;;;;;;;0.50;0.10;;;4.70;1.00;;;;;;5007994;28;20449;-75
2022/01/17 06:55:38;;;;;;;0.50;0.10;;;4.70;1.00;;;;;;5015327;28;20455;-76
2022/01/17 06:58:06;;;;;;;0.50;0.10;;;4.80;1.00;;;;;;5025847;28;20550;-75
2022/01/17 07:00:34;;;;;;;1.37;0.90;;;4.80;1.00;;;;;;5028847;28;20504;-76
2022/01/17 07:03:03;;;;;;;0.50;0.10;;;;;;;;;;5025385;28;20977;-75
2022/01/17 07:05:32;;;;;;;0.50;0.10;;;4.90;1.00;;;;;;5036094;28;20445;-76
2022/01/17 07:08:01;;;;;;;0.87;0.73;;;4.90;1.00;;;;;;5034145;28;20470;-78
2022/01/17 07:10:29;;;;;;;1.80;1.70;;;4.90;1.00;;;;;;4996643;28;20551;-76
2022/01/17 07:12:57;;;;;;;0.50;0.10;;;4.80;1.00;;;;;;4995806;28;20974;-76
2022/01/17 07:15:25;;;;;;;0.60;0.37;;;4.80;1.00;;;;;;5006048;28;20453;-76
2022/01/17 07:17:53;;;;;;;0.60;0.40;;;4.70;1.00;;;;;;5015548;28;20453;-75
2022/01/17 07:20:21;;;;;;;0.50;0.10;;;4.70;1.00;;;;;;5041364;28;20486;-76
2022/01/17 07:22:49;;;;;;;0.50;0.10;;;4.70;1.00;;;;;;5047449;28;20452;-76
2022/01/17 07:25:18;;;;;;;0.50;0.10;;;3.50;1.00;;;;;;5017162;28;20459;-78
2022/01/17 07:27:46;;;;;;;0.50;0.20;;;4.80;1.00;;;;;;5017788;28;20446;-76
2022/01/17 07:30:14;;;;;;;0.50;0.10;;;4.90;1.00;;;;;;5040921;28;20465;-76
2022/01/17 07:32:42;;;;;;;0.50;0.10;;;4.90;1.00;;;;;;5041951;28;20474;-76
2022/01/17 07:35:11;;;;;;;0.50;0.10;;;4.90;1.00;;;;;;5034586;28;20711;-76
2022/01/17 07:37:39;;;;;;;6.43;1.13;;;4.90;1.00;;;;;;5031188;28;20749;-77
2022/01/17 07:40:09;;;;;;;1.00;0.60;;;4.90;1.00;;;;;;5034441;28;20484;-75
2022/01/17 07:42:38;;;;;;;0.60;0.30;;;5.00;1.00;;;;;;5034245;28;20456;-76
2022/01/17 07:45:13;;;;;;;0.50;0.20;;;5.00;1.00;;;;;;5033495;28;20601;-75
2022/01/17 07:47:45;;;;;;;0.50;0.10;;;5.00;1.00;;;;;;5022765;28;20810;-74
2022/01/17 07:50:16;;;;;;;0.50;0.30;;;5.00;1.00;;;;;;5014523;28;20480;-76
2022/01/17 07:52:44;;;;;;;0.50;0.10;;;5.10;1.00;;;;;;5016234;28;20451;-77
2022/01/17 07:55:12;;;;;;;0.50;0.10;;;5.10;1.00;;;;;;5015344;28;20455;-76
2022/01/17 07:57:42;;;;;;;0.50;0.10;;;5.10;1.00;;;;;;5020964;28;20460;-77
2022/01/17 08:00:12;;;;;;;0.87;0.30;;;5.10;1.00;;;;;;5029064;28;20838;-76
2022/01/17 08:02:40;;;;;;;0.50;0.20;;;5.10;1.00;;;;;;5034820;28;20435;-76
2022/01/17 08:05:14;;;;;;;0.50;0.10;;;5.10;1.00;;;;;;5033573;28;20451;-76
2022/01/17 08:07:42;;;;;;;0.50;0.10;;;5.10;1.00;;;;;;5035192;28;20475;-75
2022/01/17 08:10:12;;;;;;;0.50;0.10;;;5.10;1.00;;;;;;5017292;28;20530;-76
2022/01/17 08:12:43;;;;;;;0.50;0.10;;;5.10;1.00;;;;;;5015563;28;20462;-76
2022/01/17 08:15:12;;;;;;;0.50;0.10;;;5.20;1.00;;;;;;5014709;28;20482;-76
2022/01/17 08:17:40;;;;;;;0.50;0.10;;;5.30;1.00;;;;;;5014822;28;20452;-75
2022/01/17 08:20:09;;;;;;;0.50;0.10;;;5.30;1.00;;;;;;5033678;28;20496;-76
2022/01/17 08:22:36;;;;;;;0.50;0.10;;;5.40;1.00;;;;;;5035101;28;20447;-76
2022/01/17 08:25:06;;;;;;;0.60;0.53;;;5.40;1.00;;;;;;5011112;28;20467;-77
2022/01/17 08:27:34;;;;;;;0.50;0.10;;;5.40;1.00;;;;;;5013378;28;20457;-77
2022/01/17 08:30:04;;;;;;;0.50;0.20;;;5.30;1.00;;;;;;5026826;28;20463;-77
2022/01/17 08:32:52;;;;;;;2.20;2.10;;;5.40;1.00;;;;;;5016831;28;20499;-78
2022/01/17 08:35:20;;;;;;;1.40;1.30;;;5.50;1.00;;;;;;5014516;28;20540;-77
2022/01/17 08:37:50;;;;;;;0.50;0.10;;;5.40;1.00;;;;;;5015798;28;20441;-76
2022/01/17 08:40:19;;;;;;;0.50;0.10;;;5.40;1.00;;;;;;5041764;28;20487;-77
2022/01/17 08:42:49;;;;;;;0.50;0.10;;;5.50;1.00;;;;;;5038271;28;20522;-77
2022/01/17 08:45:23;;;;;;;1.77;1.63;;;5.50;1.00;;;;;;5011071;28;20448;-77
2022/01/17 08:48:09;;;;;;;0.50;0.10;;;5.50;1.00;;;;;;5019753;28;20449;-75
2022/01/17 08:50:38;;;;;;;0.50;0.10;;;5.50;1.00;;;;;;5023540;28;20469;-76
2022/01/17 08:53:07;;;;;;;0.50;0.10;;;5.60;1.00;;;;;;5023621;28;20451;-76
2022/01/17 08:55:35;;;;;;;6.53;1.03;;;5.60;1.00;;;;;;5026342;28;20451;-75
2022/01/17 08:58:04;;;;;;;0.50;0.10;;;5.70;1.00;;;;;;5018886;28;20461;-76
2022/01/17 09:00:33;;;;;;;0.50;0.10;;;5.70;1.00;;;;;;5013165;28;20490;-75
2022/01/17 09:03:19;;;;;;;0.50;0.10;;;5.70;1.00;;;;;;5017854;28;20477;-76
2022/01/17 09:05:48;;;;;;;0.60;0.40;;;5.70;1.00;;;;;;5028322;28;20432;-76
2022/01/17 09:08:18;;;;;;;0.50;0.10;;;5.70;1.00;;;;;;5026648;28;20453;-75
2022/01/17 09:10:46;;;;;;;0.97;0.67;;;5.70;1.00;;;;;;4993709;28;20821;-76
2022/01/17 09:13:14;;;;;;;0.63;0.60;;;5.70;1.00;;;;;;4997337;28;20466;-75
2022/01/17 09:15:45;;;;;;;0.50;0.10;;;5.70;1.00;;;;;;5014996;28;20444;-77
2022/01/17 09:18:14;;;;;;;0.60;0.10;;;5.70;1.00;;;;;;5010381;28;20852;-77
2022/01/17 09:20:43;;;;;;;0.50;0.10;;;5.70;1.00;;;;;;5014048;28;20496;-75
2022/01/17 09:23:11;;;;;;;1.07;1.07;;;5.80;1.00;;;;;;5001203;28;20876;-74
2022/01/17 09:25:39;;;;;;;0.80;0.40;;;5.90;1.00;;;;;;5010429;28;20499;-77
2022/01/17 09:28:08;;;;;;;0.60;0.37;;;5.90;1.00;;;;;;5012478;28;20446;-76
2022/01/17 09:30:36;;;;;;;0.50;0.10;;;5.90;1.00;;;;;;5029023;28;20465;-76
2022/01/17 09:33:05;;;;;;;0.50;0.10;;;5.90;1.00;;;;;;5035780;28;20789;-76
2022/01/17 09:35:34;;;;;;;0.50;0.20;;;5.90;1.00;;;;;;5028422;28;20860;-74
2022/01/17 09:38:02;;;;;;;1.83;1.37;;;5.90;1.00;;;;;;5012720;28;20458;-77
2022/01/17 09:40:30;;;;;;;0.50;0.10;;;5.90;1.00;;;;;;5014592;28;20480;-76
2022/01/17 09:42:59;;;;;;;25.23;4.57;;;5.90;1.00;;;;;;5012581;28;20557;-76
2022/01/17 09:45:27;;;;;;;0.50;0.10;;;5.90;1.00;;;;;;5012461;28;20442;-75
2022/01/17 09:47:55;;;;;;;1.13;0.47;;;6.00;1.00;;;;;;5021283;28;20547;-76
2022/01/17 09:50:33;;;;;;;0.80;0.40;;;6.00;1.00;;;;;;5013099;28;20917;-76
2022/01/17 09:53:02;;;;;;;2.27;0.80;;;6.00;1.00;;;;;;5011973;28;20540;-75
2022/01/17 09:55:32;;;;;;;2.90;1.10;;;6.00;1.00;;;;;;5016178;28;20544;-75
2022/01/17 09:58:03;;;;;;;0.50;0.17;;;6.00;1.00;;;;;;5019133;28;20463;-75
2022/01/17 10:00:33;;;;;;;1.30;1.20;;;6.00;1.00;;;;;;5013819;28;20936;-75
2022/01/17 10:03:06;;;;;;;0.50;0.10;;;6.00;1.00;;;;;;5013107;28;20548;-75
2022/01/17 10:05:36;;;;;;;1.43;0.73;;;6.00;1.00;;;;;;5018224;28;20589;-76
2022/01/17 10:08:06;;;;;;;0.87;0.87;;;6.10;1.00;;;;;;5033933;28;20462;-74
2022/01/17 10:10:44;;;;;;;1.57;0.83;;;6.10;1.00;;;;;;5040222;28;20536;-75
2022/01/17 10:13:16;;;;;;;3.43;1.63;;;6.10;1.00;;;;;;5040445;28;20457;-75
2022/01/17 10:16:01;;;;;;;0.50;0.20;;;6.10;1.00;;;;;;5035175;28;20448;-74
2022/01/17 10:18:38;;;;;;;2.20;2.00;;;6.20;1.00;;;;;;5030180;28;20449;-75
2022/01/17 10:21:13;;;;;;;0.60;0.40;;;6.20;1.00;;;;;;5034580;28;20488;-73
2022/01/17 10:26:56;;;;;;;0.67;0.67;;;6.20;1.00;;;;;;5013123;28;20454;-76
2022/01/17 10:29:53;;;;;;;0.50;0.10;;;6.20;1.00;;;;;;4995969;28;20470;-74
2022/01/17 10:35:21;;;;;;;2.63;1.07;;;6.30;1.00;;;;;;5021596;28;20457;-74
2022/01/17 10:38:01;;;;;;;0.70;0.50;;;6.30;1.00;;;;;;5026707;28;20454;-73
2022/01/17 10:40:31;;;;;;;1.13;0.53;;;6.20;1.00;;;;;;5017663;28;20500;-75
2022/01/17 10:43:01;;;;;;;2.73;2.53;;;6.20;1.00;;;;;;5014706;28;20502;-76
2022/01/17 10:45:33;;;;;;;0.97;0.53;;;6.20;1.00;;;;;;5016460;28;20808;-74
2022/01/17 10:48:02;;;;;;;0.90;0.70;;;6.10;1.00;;;;;;5020489;28;20444;-73
2022/01/17 10:50:32;;;;;;;0.53;0.30;;;6.10;1.00;;;;;;5015593;28;20476;-75
2022/01/17 10:53:04;;;;;;;0.60;0.20;;;6.20;1.00;;;;;;5016418;28;20641;-76
2022/01/17 10:55:34;;;;;;;2.80;2.43;;;6.20;1.00;;;;;;5027054;28;20551;-75
2022/01/17 10:58:05;;;;;;;1.93;1.83;;;6.20;1.00;;;;;;5036987;28;20458;-74
2022/01/17 11:00:36;;;;;;;0.80;0.57;;;6.20;1.00;;;;;;5018354;28;20572;-75
2022/01/17 11:03:06;;;;;;;0.60;0.23;;;6.20;1.00;;;;;;5017368;28;20864;-74
2022/01/17 11:05:37;;;;;;;0.50;0.23;;;6.20;1.00;;;;;;5014912;28;20445;-74
2022/01/17 11:08:12;;;;;;;0.50;0.20;;;6.20;1.00;;;;;;5014872;28;20441;-74
2022/01/17 11:10:42;;;;;;;0.80;0.23;;;6.30;1.00;;;;;;5015126;28;20861;-74
2022/01/17 11:13:12;;;;;;;0.50;0.10;;;6.30;1.00;;;;;;5013568;28;20459;-75
2022/01/17 11:15:43;;;;;;;0.50;0.20;;;6.30;1.00;;;;;;5021077;28;20454;-75
2022/01/17 11:18:17;;;;;;;1.20;1.03;;;6.40;1.00;;;;;;5029682;28;20496;-73
2022/01/17 11:20:46;;;;;;;12.73;4.73;;;6.40;1.00;;;;;;5017220;28;20507;-76
2022/01/17 11:23:18;;;;;;;1.43;1.17;;;6.50;1.00;;;;;;5016546;28;20446;-77
2022/01/17 11:25:51;;;;;;;3.03;2.33;;;6.50;1.00;;;;;;5015324;28;20452;-76
2022/01/17 11:28:22;;;;;;;0.77;0.50;;;6.50;1.00;;;;;;5018198;28;20458;-76
2022/01/17 11:30:52;;;;;;;6.50;3.30;;;6.40;1.00;;;;;;5034270;28;20473;-76
2022/01/17 11:33:21;;;;;;;8.90;2.73;;;6.40;1.00;;;;;;5035212;28;20448;-77
2022/01/17 11:35:52;;;;;;;1.40;1.30;;;6.40;1.00;;;;;;5020575;28;20461;-75
2022/01/17 11:38:25;;;;;;;4.50;2.23;;;6.40;1.00;;;;;;5017123;28;20451;-76
2022/01/17 11:40:54;;;;;;;1.17;1.07;;;6.40;1.00;;;;;;5034108;28;21007;-76
2022/01/17 11:43:26;;;;;;;1.57;1.47;;;7.30;1.00;;;;;;5020028;28;20553;-77
2022/01/17 11:45:55;;;;;;;0.90;0.40;;;6.40;1.00;;;;;;5027866;28;20455;-75
2022/01/17 11:48:29;;;;;;;1.70;1.60;;;6.40;1.00;;;;;;5041179;28;20444;-75
2022/01/17 11:50:59;;;;;;;0.70;0.70;;;6.40;1.00;;;;;;5033673;28;20815;-77
2022/01/17 11:53:41;;;;;;;1.67;1.47;;;6.40;1.00;;;;;;5015599;28;20445;-77
2022/01/17 11:56:10;;;;;;;1.20;0.83;;;6.50;1.00;;;;;;5031500;28;20452;-78
2022/01/17 11:58:41;;;;;;;3.90;2.53;;;6.50;1.00;;;;;;5035919;28;20437;-77
2022/01/17 12:01:20;;;;;;;1.23;1.10;;;6.50;1.00;;;;;;5034947;28;20572;-77
2022/01/17 12:03:50;;;;;;;4.03;3.03;;;6.50;1.00;;;;;;5034736;28;20481;-75
2022/01/17 12:06:28;;;;;;;2.30;2.10;;;6.50;1.00;;;;;;5023856;28;20453;-78
2022/01/17 12:09:21;;;;;;;3.10;2.10;;;6.50;1.00;;;;;;5017242;28;20476;-78
2022/01/17 12:11:53;;;;;;;4.00;2.23;;;6.50;1.00;;;;;;5016656;28;20483;-76
2022/01/17 12:14:29;;;;;;;0.60;0.40;;;6.50;1.00;;;;;;5028720;28;20555;-75
2022/01/17 12:17:27;;;;;;;2.10;1.40;;;6.50;1.00;;;;;;5037536;28;20445;-76
2022/01/17 12:20:22;;;;;;;1.70;0.80;;;6.60;1.00;;;;;;5043675;28;20465;-78
2022/01/17 12:22:56;;;;;;;0.60;0.30;;;6.60;1.00;;;;;;5041023;28;20472;-77
2022/01/17 12:25:35;;;;;;;1.13;1.03;;;6.60;1.00;;;;;;5035889;28;20460;-78
2022/01/17 12:28:23;;;;;;;1.43;1.33;;;6.70;1.00;;;;;;5044031;28;20517;-75
2022/01/17 12:30:54;;;;;;;3.03;1.30;;;6.70;1.00;;;;;;5002545;28;20467;-79
2022/01/17 12:33:37;;;;;;;8.73;2.40;;;6.80;1.00;;;;;;4999437;28;20525;-77
2022/01/17 12:36:26;;;;;;;1.57;0.80;;;6.80;1.00;;;;;;5017833;28;20454;-76
2022/01/17 12:39:11;;;;;;;0.80;0.60;;;6.80;1.00;;;;;;5018700;28;20485;-79
2022/01/17 12:41:42;;;;;;;1.23;1.10;;;7.00;1.00;;;;;;5018375;28;20491;-76
2022/01/17 12:44:14;;;;;;;1.70;1.60;;;7.00;1.00;;;;;;5017187;28;20830;-77
2022/01/17 12:46:43;;;;;;;2.50;2.20;;;7.10;1.00;;;;;;5016734;28;20452;-79
2022/01/17 12:49:11;;;;;;;0.83;0.83;;;7.20;1.00;;;;;;5015715;28;20481;-79
2022/01/17 12:51:43;;;;;;;3.67;3.13;;;7.20;1.00;;;;;;5021310;28;20545;-76
2022/01/17 12:54:13;;;;;;;1.57;0.87;;;7.20;1.00;;;;;;5036900;28;20440;-76
2022/01/17 12:56:43;;;;;;;3.00;1.37;;;7.30;1.00;;;;;;5039897;28;20450;-76
2022/01/17 12:59:12;;;;;;;0.50;0.30;;;7.30;1.00;;;;;;5043598;28;20509;-78
2022/01/17 13:01:44;;;;;;;0.83;0.67;;;7.30;1.00;;;;;;5036180;28;20488;-76
2022/01/17 13:04:14;;;;;;;0.97;0.70;;;7.30;1.00;;;;;;5033096;28;20468;-78
2022/01/17 13:06:43;;;;;;;1.80;1.70;;;7.40;1.00;;;;;;5024660;28;20462;-75
2022/01/17 13:09:13;;;;;;;4.40;1.47;;;7.40;1.00;;;;;;5016372;28;20458;-76
2022/01/17 13:11:45;;;;;;;0.70;0.50;;;7.50;1.00;;;;;;5014773;28;20815;-78
2022/01/17 13:14:17;;;;;;;13.83;2.27;;;7.40;1.00;;;;;;5013573;28;20562;-76
2022/01/17 13:16:46;;;;;;;0.93;0.80;;;7.40;1.00;;;;;;5028396;28;20519;-76
2022/01/17 13:19:15;;;;;;;1.80;1.07;;;7.40;1.00;;;;;;5021422;28;20454;-75
2022/01/17 13:21:46;;;;;;;3.60;1.93;;;7.30;1.00;;;;;;5026971;28;20962;-75
2022/01/17 13:24:18;;;;;;;3.73;2.27;;;7.30;1.00;;;;;;5020140;28;20458;-75
2022/01/17 13:26:50;;;;;;;0.80;0.40;;;7.30;1.00;;;;;;5020994;28;20960;-76
2022/01/17 13:29:18;;;;;;;1.30;1.13;;;7.30;1.00;;;;;;5016562;28;20834;-76
2022/01/17 13:31:45;;;;;;;3.13;1.30;;;7.40;1.00;;;;;;5014001;28;20447;-76
2022/01/17 13:34:16;;;;;;;3.60;2.23;;;7.40;1.00;;;;;;5020898;28;20458;-76
2022/01/17 13:36:45;;;;;;;3.00;2.60;;;7.40;1.00;;;;;;5022032;28;20540;-76
2022/01/17 13:39:15;;;;;;;1.90;1.80;;;7.40;1.00;;;;;;5020285;28;20550;-76
2022/01/17 13:41:46;;;;;;;1.37;0.67;;;7.30;1.00;;;;;;5043435;28;20464;-76